sensor_id;sensor_type;location;lat;lon;timestamp;temperature;humidity
12771;DHT22;6449;47.666;9.160;2024-02-26T00:00:22;4.60;99.90
12771;DHT22;6449;47.666;9.160;2024-02-26T00:05:16;4.70;99.90
12771;DHT22;6449;47.666;9.160;2024-02-26T00:10:13;4.60;99.90
12771;DHT22;6449;47.666;9.160;2024-02-26T00:15:10;4.50;99.90
12771;DHT22;6449;47.666;9.160;2024-02-26T00:20:04;4.70;99.90
12771;DHT22;6449;47.666;9.160;2024-02-26T00:25:01;4.80;99.90
12771;DHT22;6449;47.666;9.160;2024-02-26T00:29:55;4.80;99.90
12771;DHT22;6449;47.666;9.160;2024-02-26T00:34:49;5.00;99.90
12771;DHT22;6449;47.666;9.160;2024-02-26T00:39:47;5.00;99.90
12771;DHT22;6449;47.666;9.160;2024-02-26T00:44:41;5.00;99.90
12771;DHT22;6449;47.666;9.160;2024-02-26T00:49:36;5.00;99.90
12771;DHT22;6449;47.666;9.160;2024-02-26T00:54:30;4.90;99.90
12771;DHT22;6449;47.666;9.160;2024-02-26T00:59:23;4.70;99.90
12771;DHT22;6449;47.666;9.160;2024-02-26T01:04:17;4.70;99.90
12771;DHT22;6449;47.666;9.160;2024-02-26T01:09:12;4.70;99.90
12771;DHT22;6449;47.666;9.160;2024-02-26T01:14:05;4.80;99.90
12771;DHT22;6449;47.666;9.160;2024-02-26T01:18:59;4.90;99.90
12771;DHT22;6449;47.666;9.160;2024-02-26T01:23:52;4.90;99.90
12771;DHT22;6449;47.666;9.160;2024-02-26T01:28:48;4.90;99.90
12771;DHT22;6449;47.666;9.160;2024-02-26T01:33:42;4.90;99.90
12771;DHT22;6449;47.666;9.160;2024-02-26T01:38:35;5.00;99.90
12771;DHT22;6449;47.666;9.160;2024-02-26T01:43:29;5.00;99.90
12771;DHT22;6449;47.666;9.160;2024-02-26T01:48:24;5.00;99.90
12771;DHT22;6449;47.666;9.160;2024-02-26T01:53:19;5.00;99.90
12771;DHT22;6449;47.666;9.160;2024-02-26T01:58:13;5.00;99.90
12771;DHT22;6449;47.666;9.160;2024-02-26T02:03:07;5.00;99.90
12771;DHT22;6449;47.666;9.160;2024-02-26T02:08:05;5.00;99.90
12771;DHT22;6449;47.666;9.160;2024-02-26T02:12:59;5.00;99.90
12771;DHT22;6449;47.666;9.160;2024-02-26T02:17:53;5.10;99.90
12771;DHT22;6449;47.666;9.160;2024-02-26T02:22:48;5.20;99.90
12771;DHT22;6449;47.666;9.160;2024-02-26T02:27:43;5.20;99.90
12771;DHT22;6449;47.666;9.160;2024-02-26T02:32:37;5.20;99.90
12771;DHT22;6449;47.666;9.160;2024-02-26T02:37:37;5.20;99.90
12771;DHT22;6449;47.666;9.160;2024-02-26T02:42:32;5.20;99.90
12771;DHT22;6449;47.666;9.160;2024-02-26T02:47:29;5.20;99.90
12771;DHT22;6449;47.666;9.160;2024-02-26T02:52:22;5.20;99.90
12771;DHT22;6449;47.666;9.160;2024-02-26T02:57:16;5.20;99.90
12771;DHT22;6449;47.666;9.160;2024-02-26T03:02:11;5.20;99.90
12771;DHT22;6449;47.666;9.160;2024-02-26T03:07:07;5.10;99.90
12771;DHT22;6449;47.666;9.160;2024-02-26T03:12:01;5.20;99.90
12771;DHT22;6449;47.666;9.160;2024-02-26T03:16:54;5.20;99.90
12771;DHT22;6449;47.666;9.160;2024-02-26T03:21:49;5.10;99.90
12771;DHT22;6449;47.666;9.160;2024-02-26T03:26:43;5.10;99.90
12771;DHT22;6449;47.666;9.160;2024-02-26T03:31:36;5.10;99.90
12771;DHT22;6449;47.666;9.160;2024-02-26T03:36:29;5.00;99.90
12771;DHT22;6449;47.666;9.160;2024-02-26T03:41:24;5.00;99.90
12771;DHT22;6449;47.666;9.160;2024-02-26T03:46:18;5.00;99.90
12771;DHT22;6449;47.666;9.160;2024-02-26T03:51:11;5.00;99.90
12771;DHT22;6449;47.666;9.160;2024-02-26T03:56:05;4.90;99.90
12771;DHT22;6449;47.666;9.160;2024-02-26T04:01:01;5.00;99.90
12771;DHT22;6449;47.666;9.160;2024-02-26T04:05:54;5.00;99.90
12771;DHT22;6449;47.666;9.160;2024-02-26T04:10:48;5.00;99.90
12771;DHT22;6449;47.666;9.160;2024-02-26T04:15:41;4.90;99.90
12771;DHT22;6449;47.666;9.160;2024-02-26T04:20:36;4.80;99.90
12771;DHT22;6449;47.666;9.160;2024-02-26T04:25:30;4.70;99.90
12771;DHT22;6449;47.666;9.160;2024-02-26T04:30:30;4.50;99.90
12771;DHT22;6449;47.666;9.160;2024-02-26T04:35:24;4.40;99.90
12771;DHT22;6449;47.666;9.160;2024-02-26T04:40:19;4.30;99.90
12771;DHT22;6449;47.666;9.160;2024-02-26T04:45:13;4.30;99.90
12771;DHT22;6449;47.666;9.160;2024-02-26T04:50:07;4.50;99.90
12771;DHT22;6449;47.666;9.160;2024-02-26T04:55:01;4.60;99.90
12771;DHT22;6449;47.666;9.160;2024-02-26T04:59:56;4.60;99.90
12771;DHT22;6449;47.666;9.160;2024-02-26T05:04:50;4.70;99.90
12771;DHT22;6449;47.666;9.160;2024-02-26T05:09:44;4.80;99.90
12771;DHT22;6449;47.666;9.160;2024-02-26T05:14:39;4.90;99.90
12771;DHT22;6449;47.666;9.160;2024-02-26T05:19:34;4.90;99.90
12771;DHT22;6449;47.666;9.160;2024-02-26T05:24:28;4.90;99.90
12771;DHT22;6449;47.666;9.160;2024-02-26T05:29:21;5.00;99.90
12771;DHT22;6449;47.666;9.160;2024-02-26T05:34:15;4.90;99.90
12771;DHT22;6449;47.666;9.160;2024-02-26T05:39:10;5.00;99.90
12771;DHT22;6449;47.666;9.160;2024-02-26T05:44:11;4.90;99.90
12771;DHT22;6449;47.666;9.160;2024-02-26T05:49:06;4.90;99.90
12771;DHT22;6449;47.666;9.160;2024-02-26T05:54:00;4.90;99.90
12771;DHT22;6449;47.666;9.160;2024-02-26T05:58:55;4.80;99.90
12771;DHT22;6449;47.666;9.160;2024-02-26T06:03:48;4.80;99.90
12771;DHT22;6449;47.666;9.160;2024-02-26T06:08:42;4.80;99.90
12771;DHT22;6449;47.666;9.160;2024-02-26T06:13:36;4.90;99.90
12771;DHT22;6449;47.666;9.160;2024-02-26T06:18:31;4.80;99.90
12771;DHT22;6449;47.666;9.160;2024-02-26T06:23:25;4.90;99.90
12771;DHT22;6449;47.666;9.160;2024-02-26T06:28:19;4.90;99.90
12771;DHT22;6449;47.666;9.160;2024-02-26T06:33:12;4.90;99.90
12771;DHT22;6449;47.666;9.160;2024-02-26T06:38:08;4.90;99.90
12771;DHT22;6449;47.666;9.160;2024-02-26T06:43:05;4.90;99.90
12771;DHT22;6449;47.666;9.160;2024-02-26T06:48:05;4.80;99.90
12771;DHT22;6449;47.666;9.160;2024-02-26T06:52:59;4.80;99.90
12771;DHT22;6449;47.666;9.160;2024-02-26T06:57:54;4.90;99.90
12771;DHT22;6449;47.666;9.160;2024-02-26T07:02:48;4.90;99.90
12771;DHT22;6449;47.666;9.160;2024-02-26T07:07:43;5.00;99.90
12771;DHT22;6449;47.666;9.160;2024-02-26T07:13:29;5.00;99.90
12771;DHT22;6449;47.666;9.160;2024-02-26T07:18:24;5.10;99.90
12771;DHT22;6449;47.666;9.160;2024-02-26T07:23:18;5.10;99.90
12771;DHT22;6449;47.666;9.160;2024-02-26T07:28:12;5.20;99.90
12771;DHT22;6449;47.666;9.160;2024-02-26T07:33:09;5.30;99.90
12771;DHT22;6449;47.666;9.160;2024-02-26T07:38:04;5.40;99.90
12771;DHT22;6449;47.666;9.160;2024-02-26T07:43:00;5.50;99.90
12771;DHT22;6449;47.666;9.160;2024-02-26T07:47:55;5.60;99.90
12771;DHT22;6449;47.666;9.160;2024-02-26T07:52:52;5.70;99.90
12771;DHT22;6449;47.666;9.160;2024-02-26T07:57:45;5.70;99.90
12771;DHT22;6449;47.666;9.160;2024-02-26T08:02:39;5.70;99.90
12771;DHT22;6449;47.666;9.160;2024-02-26T08:07:32;5.80;99.90
12771;DHT22;6449;47.666;9.160;2024-02-26T08:12:35;5.90;99.90
12771;DHT22;6449;47.666;9.160;2024-02-26T08:17:28;6.00;99.90
12771;DHT22;6449;47.666;9.160;2024-02-26T08:22:24;6.10;99.90
12771;DHT22;6449;47.666;9.160;2024-02-26T08:27:18;6.30;99.90
12771;DHT22;6449;47.666;9.160;2024-02-26T08:32:16;6.50;99.90
12771;DHT22;6449;47.666;9.160;2024-02-26T08:37:14;6.70;99.90
12771;DHT22;6449;47.666;9.160;2024-02-26T08:42:08;6.90;99.90
12771;DHT22;6449;47.666;9.160;2024-02-26T08:47:01;7.00;99.90
12771;DHT22;6449;47.666;9.160;2024-02-26T08:51:56;6.90;99.90
12771;DHT22;6449;47.666;9.160;2024-02-26T08:56:49;7.00;99.90
12771;DHT22;6449;47.666;9.160;2024-02-26T09:01:43;7.20;99.90
12771;DHT22;6449;47.666;9.160;2024-02-26T09:06:37;7.50;99.90
12771;DHT22;6449;47.666;9.160;2024-02-26T09:11:31;7.70;99.90
12771;DHT22;6449;47.666;9.160;2024-02-26T09:16:25;8.10;99.90
12771;DHT22;6449;47.666;9.160;2024-02-26T09:21:18;8.20;99.90
12771;DHT22;6449;47.666;9.160;2024-02-26T09:26:15;8.40;99.90
12771;DHT22;6449;47.666;9.160;2024-02-26T09:31:17;8.50;99.90
12771;DHT22;6449;47.666;9.160;2024-02-26T09:36:10;8.20;99.90
12771;DHT22;6449;47.666;9.160;2024-02-26T09:41:04;8.10;99.90
12771;DHT22;6449;47.666;9.160;2024-02-26T09:45:58;8.00;99.90
12771;DHT22;6449;47.666;9.160;2024-02-26T09:50:56;7.80;99.90
12771;DHT22;6449;47.666;9.160;2024-02-26T09:55:49;7.70;99.90
12771;DHT22;6449;47.666;9.160;2024-02-26T10:00:46;7.80;99.90
12771;DHT22;6449;47.666;9.160;2024-02-26T10:05:44;7.80;99.90
12771;DHT22;6449;47.666;9.160;2024-02-26T10:10:40;7.80;99.90
12771;DHT22;6449;47.666;9.160;2024-02-26T10:15:34;7.80;99.90
12771;DHT22;6449;47.666;9.160;2024-02-26T10:20:28;7.90;99.90
12771;DHT22;6449;47.666;9.160;2024-02-26T10:25:23;7.90;99.90
12771;DHT22;6449;47.666;9.160;2024-02-26T10:30:19;7.90;99.90
12771;DHT22;6449;47.666;9.160;2024-02-26T10:35:15;7.90;99.90
12771;DHT22;6449;47.666;9.160;2024-02-26T10:40:10;8.00;99.90
12771;DHT22;6449;47.666;9.160;2024-02-26T10:45:05;8.00;99.90
12771;DHT22;6449;47.666;9.160;2024-02-26T10:50:02;8.00;99.90
12771;DHT22;6449;47.666;9.160;2024-02-26T10:54:57;8.00;99.90
12771;DHT22;6449;47.666;9.160;2024-02-26T10:59:57;7.90;99.90
12771;DHT22;6449;47.666;9.160;2024-02-26T11:04:53;7.90;99.90
12771;DHT22;6449;47.666;9.160;2024-02-26T11:09:49;7.90;99.90
12771;DHT22;6449;47.666;9.160;2024-02-26T11:14:46;7.90;99.90
12771;DHT22;6449;47.666;9.160;2024-02-26T11:19:41;7.90;99.90
12771;DHT22;6449;47.666;9.160;2024-02-26T11:24:37;7.90;99.90
12771;DHT22;6449;47.666;9.160;2024-02-26T11:29:39;7.80;99.90
12771;DHT22;6449;47.666;9.160;2024-02-26T11:34:36;7.90;99.90
12771;DHT22;6449;47.666;9.160;2024-02-26T11:39:31;8.00;99.90
12771;DHT22;6449;47.666;9.160;2024-02-26T11:44:30;8.10;99.90
12771;DHT22;6449;47.666;9.160;2024-02-26T11:49:31;8.10;99.90
12771;DHT22;6449;47.666;9.160;2024-02-26T11:54:46;8.20;99.90
12771;DHT22;6449;47.666;9.160;2024-02-26T11:59:44;8.20;99.90
12771;DHT22;6449;47.666;9.160;2024-02-26T12:04:39;8.30;99.90
12771;DHT22;6449;47.666;9.160;2024-02-26T12:09:38;8.30;99.90
12771;DHT22;6449;47.666;9.160;2024-02-26T12:14:34;8.40;99.90
12771;DHT22;6449;47.666;9.160;2024-02-26T12:19:28;8.50;99.90
12771;DHT22;6449;47.666;9.160;2024-02-26T12:24:25;8.60;99.90
12771;DHT22;6449;47.666;9.160;2024-02-26T12:29:18;8.70;99.90
12771;DHT22;6449;47.666;9.160;2024-02-26T12:34:12;8.70;99.90
12771;DHT22;6449;47.666;9.160;2024-02-26T12:39:07;8.80;99.90
12771;DHT22;6449;47.666;9.160;2024-02-26T12:44:03;8.90;99.90
12771;DHT22;6449;47.666;9.160;2024-02-26T12:48:58;9.00;99.90
12771;DHT22;6449;47.666;9.160;2024-02-26T12:53:53;9.20;99.90
12771;DHT22;6449;47.666;9.160;2024-02-26T12:58:47;9.30;99.90
12771;DHT22;6449;47.666;9.160;2024-02-26T13:03:44;9.30;99.90
12771;DHT22;6449;47.666;9.160;2024-02-26T13:08:38;9.30;99.90
12771;DHT22;6449;47.666;9.160;2024-02-26T13:13:32;9.40;99.90
12771;DHT22;6449;47.666;9.160;2024-02-26T13:18:27;9.60;99.90
12771;DHT22;6449;47.666;9.160;2024-02-26T13:23:24;9.60;99.90
12771;DHT22;6449;47.666;9.160;2024-02-26T13:28:18;9.60;99.90
12771;DHT22;6449;47.666;9.160;2024-02-26T13:33:15;9.60;99.90
12771;DHT22;6449;47.666;9.160;2024-02-26T13:38:10;9.50;99.90
12771;DHT22;6449;47.666;9.160;2024-02-26T13:43:05;9.50;99.90
12771;DHT22;6449;47.666;9.160;2024-02-26T13:48:02;9.50;99.90
12771;DHT22;6449;47.666;9.160;2024-02-26T13:52:56;9.60;99.90
12771;DHT22;6449;47.666;9.160;2024-02-26T13:57:50;9.70;99.90
12771;DHT22;6449;47.666;9.160;2024-02-26T14:02:46;9.80;99.90
12771;DHT22;6449;47.666;9.160;2024-02-26T14:07:40;9.80;99.90
12771;DHT22;6449;47.666;9.160;2024-02-26T14:12:35;9.80;99.90
12771;DHT22;6449;47.666;9.160;2024-02-26T14:17:29;9.80;99.90
12771;DHT22;6449;47.666;9.160;2024-02-26T14:22:24;9.70;99.90
12771;DHT22;6449;47.666;9.160;2024-02-26T14:27:19;9.60;99.90
12771;DHT22;6449;47.666;9.160;2024-02-26T14:32:14;9.50;99.90
12771;DHT22;6449;47.666;9.160;2024-02-26T14:37:08;9.30;99.90
12771;DHT22;6449;47.666;9.160;2024-02-26T14:42:03;9.20;99.90
12771;DHT22;6449;47.666;9.160;2024-02-26T14:46:57;9.00;99.90
12771;DHT22;6449;47.666;9.160;2024-02-26T14:51:51;9.00;99.90
12771;DHT22;6449;47.666;9.160;2024-02-26T14:56:45;8.90;99.90
12771;DHT22;6449;47.666;9.160;2024-02-26T15:01:41;8.90;99.90
12771;DHT22;6449;47.666;9.160;2024-02-26T15:06:38;8.80;99.90
12771;DHT22;6449;47.666;9.160;2024-02-26T15:11:31;8.80;99.90
12771;DHT22;6449;47.666;9.160;2024-02-26T15:16:25;8.80;99.90
12771;DHT22;6449;47.666;9.160;2024-02-26T15:21:20;8.70;99.90
12771;DHT22;6449;47.666;9.160;2024-02-26T15:26:13;8.70;99.90
12771;DHT22;6449;47.666;9.160;2024-02-26T15:31:06;8.70;99.90
12771;DHT22;6449;47.666;9.160;2024-02-26T15:36:04;8.60;99.90
12771;DHT22;6449;47.666;9.160;2024-02-26T15:41:10;8.70;99.90
12771;DHT22;6449;47.666;9.160;2024-02-26T15:46:05;8.60;99.90
12771;DHT22;6449;47.666;9.160;2024-02-26T15:50:59;8.70;99.90
12771;DHT22;6449;47.666;9.160;2024-02-26T15:55:53;8.70;99.90
12771;DHT22;6449;47.666;9.160;2024-02-26T16:00:48;8.70;99.90
12771;DHT22;6449;47.666;9.160;2024-02-26T16:05:41;8.60;99.90
12771;DHT22;6449;47.666;9.160;2024-02-26T16:10:34;8.60;99.90
12771;DHT22;6449;47.666;9.160;2024-02-26T16:15:29;8.60;99.90
12771;DHT22;6449;47.666;9.160;2024-02-26T16:20:25;8.50;99.90
12771;DHT22;6449;47.666;9.160;2024-02-26T16:25:21;8.50;99.90
12771;DHT22;6449;47.666;9.160;2024-02-26T16:30:15;8.50;99.90
12771;DHT22;6449;47.666;9.160;2024-02-26T16:35:09;8.40;99.90
12771;DHT22;6449;47.666;9.160;2024-02-26T16:40:06;8.40;99.90
12771;DHT22;6449;47.666;9.160;2024-02-26T16:45:01;8.30;99.90
12771;DHT22;6449;47.666;9.160;2024-02-26T16:49:56;8.30;99.90
12771;DHT22;6449;47.666;9.160;2024-02-26T16:54:50;8.30;99.90
12771;DHT22;6449;47.666;9.160;2024-02-26T16:59:44;8.30;99.90
12771;DHT22;6449;47.666;9.160;2024-02-26T17:04:38;8.30;99.90
12771;DHT22;6449;47.666;9.160;2024-02-26T17:09:32;8.20;99.90
12771;DHT22;6449;47.666;9.160;2024-02-26T17:14:25;8.10;99.90
12771;DHT22;6449;47.666;9.160;2024-02-26T17:19:24;8.10;99.90
12771;DHT22;6449;47.666;9.160;2024-02-26T17:24:18;8.10;99.90
12771;DHT22;6449;47.666;9.160;2024-02-26T17:29:11;8.10;99.90
12771;DHT22;6449;47.666;9.160;2024-02-26T17:34:04;8.00;99.90
12771;DHT22;6449;47.666;9.160;2024-02-26T17:38:59;8.00;99.90
12771;DHT22;6449;47.666;9.160;2024-02-26T17:43:52;8.00;99.90
12771;DHT22;6449;47.666;9.160;2024-02-26T17:48:46;7.90;99.90
12771;DHT22;6449;47.666;9.160;2024-02-26T17:53:40;7.90;99.90
12771;DHT22;6449;47.666;9.160;2024-02-26T17:58:37;7.80;99.90
12771;DHT22;6449;47.666;9.160;2024-02-26T18:03:33;7.80;99.90
12771;DHT22;6449;47.666;9.160;2024-02-26T18:08:27;7.70;99.90
12771;DHT22;6449;47.666;9.160;2024-02-26T18:13:25;7.70;99.90
12771;DHT22;6449;47.666;9.160;2024-02-26T18:18:20;7.70;99.90
12771;DHT22;6449;47.666;9.160;2024-02-26T18:23:13;7.60;99.90
12771;DHT22;6449;47.666;9.160;2024-02-26T18:28:07;7.60;99.90
12771;DHT22;6449;47.666;9.160;2024-02-26T18:33:00;7.50;99.90
12771;DHT22;6449;47.666;9.160;2024-02-26T18:37:56;7.50;99.90
12771;DHT22;6449;47.666;9.160;2024-02-26T18:42:50;7.40;99.90
12771;DHT22;6449;47.666;9.160;2024-02-26T18:47:43;7.30;99.90
12771;DHT22;6449;47.666;9.160;2024-02-26T18:52:37;7.30;99.90
12771;DHT22;6449;47.666;9.160;2024-02-26T18:57:33;7.20;99.90
12771;DHT22;6449;47.666;9.160;2024-02-26T19:02:28;7.20;99.90
12771;DHT22;6449;47.666;9.160;2024-02-26T19:07:21;7.10;99.90
12771;DHT22;6449;47.666;9.160;2024-02-26T19:12:15;7.10;99.90
12771;DHT22;6449;47.666;9.160;2024-02-26T19:17:10;7.00;99.90
12771;DHT22;6449;47.666;9.160;2024-02-26T19:22:04;7.00;99.90
12771;DHT22;6449;47.666;9.160;2024-02-26T19:27:04;6.90;99.90
12771;DHT22;6449;47.666;9.160;2024-02-26T19:31:58;6.80;99.90
12771;DHT22;6449;47.666;9.160;2024-02-26T19:36:52;6.80;99.90
12771;DHT22;6449;47.666;9.160;2024-02-26T19:41:46;6.70;99.90
12771;DHT22;6449;47.666;9.160;2024-02-26T19:46:39;6.70;99.90
12771;DHT22;6449;47.666;9.160;2024-02-26T19:51:33;6.70;99.90
12771;DHT22;6449;47.666;9.160;2024-02-26T19:56:29;6.70;99.90
12771;DHT22;6449;47.666;9.160;2024-02-26T20:01:25;6.60;99.90
12771;DHT22;6449;47.666;9.160;2024-02-26T20:06:19;6.60;99.90
12771;DHT22;6449;47.666;9.160;2024-02-26T20:11:15;6.60;99.90
12771;DHT22;6449;47.666;9.160;2024-02-26T20:16:11;6.60;99.90
12771;DHT22;6449;47.666;9.160;2024-02-26T20:21:05;6.50;99.90
12771;DHT22;6449;47.666;9.160;2024-02-26T20:25:58;6.50;99.90
12771;DHT22;6449;47.666;9.160;2024-02-26T20:30:52;6.50;99.90
12771;DHT22;6449;47.666;9.160;2024-02-26T20:35:47;6.40;99.90
12771;DHT22;6449;47.666;9.160;2024-02-26T20:40:41;6.40;99.90
12771;DHT22;6449;47.666;9.160;2024-02-26T20:45:34;6.40;99.90
12771;DHT22;6449;47.666;9.160;2024-02-26T20:50:28;6.20;99.90
12771;DHT22;6449;47.666;9.160;2024-02-26T20:55:24;6.20;99.90
12771;DHT22;6449;47.666;9.160;2024-02-26T21:00:18;6.20;99.90
12771;DHT22;6449;47.666;9.160;2024-02-26T21:05:12;6.10;99.90
12771;DHT22;6449;47.666;9.160;2024-02-26T21:10:09;6.10;99.90
12771;DHT22;6449;47.666;9.160;2024-02-26T21:15:08;6.10;99.90
12771;DHT22;6449;47.666;9.160;2024-02-26T21:20:03;6.10;99.90
12771;DHT22;6449;47.666;9.160;2024-02-26T21:24:57;6.10;99.90
12771;DHT22;6449;47.666;9.160;2024-02-26T21:29:51;6.00;99.90
12771;DHT22;6449;47.666;9.160;2024-02-26T21:34:47;6.00;99.90
12771;DHT22;6449;47.666;9.160;2024-02-26T21:39:45;5.90;99.90
12771;DHT22;6449;47.666;9.160;2024-02-26T21:44:39;5.80;99.90
12771;DHT22;6449;47.666;9.160;2024-02-26T21:49:32;5.80;99.90
12771;DHT22;6449;47.666;9.160;2024-02-26T21:54:31;5.70;99.90
12771;DHT22;6449;47.666;9.160;2024-02-26T21:59:25;5.60;99.90
12771;DHT22;6449;47.666;9.160;2024-02-26T22:04:21;5.50;99.90
12771;DHT22;6449;47.666;9.160;2024-02-26T22:09:14;5.60;99.90
12771;DHT22;6449;47.666;9.160;2024-02-26T22:14:09;5.50;99.90
12771;DHT22;6449;47.666;9.160;2024-02-26T22:19:02;5.60;99.90
12771;DHT22;6449;47.666;9.160;2024-02-26T22:23:57;5.60;99.90
12771;DHT22;6449;47.666;9.160;2024-02-26T22:28:51;5.70;99.90
12771;DHT22;6449;47.666;9.160;2024-02-26T22:33:45;5.80;99.90
12771;DHT22;6449;47.666;9.160;2024-02-26T22:38:39;5.80;99.90
12771;DHT22;6449;47.666;9.160;2024-02-26T22:43:32;5.80;99.90
12771;DHT22;6449;47.666;9.160;2024-02-26T22:48:26;5.80;99.90
12771;DHT22;6449;47.666;9.160;2024-02-26T22:53:21;5.80;99.90
12771;DHT22;6449;47.666;9.160;2024-02-26T22:58:14;5.90;99.90
12771;DHT22;6449;47.666;9.160;2024-02-26T23:03:08;5.90;99.90
12771;DHT22;6449;47.666;9.160;2024-02-26T23:08:01;5.80;99.90
12771;DHT22;6449;47.666;9.160;2024-02-26T23:12:58;5.80;99.90
12771;DHT22;6449;47.666;9.160;2024-02-26T23:17:52;5.70;99.90
12771;DHT22;6449;47.666;9.160;2024-02-26T23:22:47;5.60;99.90
12771;DHT22;6449;47.666;9.160;2024-02-26T23:27:43;5.60;99.90
12771;DHT22;6449;47.666;9.160;2024-02-26T23:32:39;5.60;99.90
12771;DHT22;6449;47.666;9.160;2024-02-26T23:37:34;5.50;99.90
12771;DHT22;6449;47.666;9.160;2024-02-26T23:42:28;5.50;99.90
12771;DHT22;6449;47.666;9.160;2024-02-26T23:47:21;5.50;99.90
12771;DHT22;6449;47.666;9.160;2024-02-26T23:52:18;5.50;99.90
12771;DHT22;6449;47.666;9.160;2024-02-26T23:57:12;5.60;99.90
